createdAt,value
2019-02-27T00:01:18.387Z,15.23
2019-02-27T00:03:48.108Z,15.90
2019-02-27T00:06:17.714Z,14.87
2019-02-27T00:08:47.212Z,15.27
2019-02-27T00:11:16.933Z,16.13
2019-02-27T00:13:46.436Z,15.73
2019-02-27T00:16:15.975Z,13.30
2019-02-27T00:18:45.415Z,13.53
2019-02-27T00:21:14.869Z,11.63
2019-02-27T00:23:44.369Z,13.47
2019-02-27T00:26:14.017Z,15.70
2019-02-27T00:28:43.553Z,13.83
2019-02-27T00:31:13.111Z,15.57
2019-02-27T00:33:42.645Z,16.07
2019-02-27T00:36:12.905Z,13.97
2019-02-27T00:38:42.465Z,12.00
2019-02-27T00:41:12.969Z,12.50
2019-02-27T00:43:42.693Z,13.70
2019-02-27T00:46:13.227Z,13.67
2019-02-27T00:48:43.558Z,14.47
2019-02-27T00:51:13.026Z,14.93
2019-02-27T00:53:42.575Z,14.10
2019-02-27T00:56:12.795Z,16.43
2019-02-27T00:58:42.415Z,11.90
2019-02-27T01:01:12.704Z,14.03
2019-02-27T01:03:42.748Z,13.70
2019-02-27T01:06:14.645Z,12.87
2019-02-27T01:08:43.918Z,12.07
2019-02-27T01:11:13.383Z,14.73
2019-02-27T01:13:42.871Z,12.40
2019-02-27T01:16:16.991Z,12.57
2019-02-27T01:18:43.694Z,12.50
2019-02-27T01:21:13.178Z,14.23
2019-02-27T01:23:44.616Z,11.73
2019-02-27T01:26:13.809Z,12.80
2019-02-27T01:28:45.424Z,12.27
2019-02-27T01:31:14.502Z,12.73
2019-02-27T01:33:43.965Z,11.87
2019-02-27T01:36:13.477Z,14.07
2019-02-27T01:38:42.994Z,11.33
2019-02-27T01:41:12.441Z,13.00
2019-02-27T01:43:41.898Z,11.83
2019-02-27T01:46:11.505Z,11.60
2019-02-27T01:48:43.635Z,13.13
2019-02-27T01:51:12.342Z,13.17
2019-02-27T01:53:41.935Z,12.80
2019-02-27T01:56:11.460Z,13.30
2019-02-27T01:58:43.305Z,12.20
2019-02-27T02:01:12.170Z,15.43
2019-02-27T02:03:41.592Z,13.17
2019-02-27T02:06:11.064Z,14.10
2019-02-27T02:08:40.698Z,13.23
2019-02-27T02:11:10.603Z,13.23
2019-02-27T02:13:53.419Z,13.03
2019-02-27T02:16:59.260Z,12.93
2019-02-27T02:19:42.101Z,12.13
2019-02-27T02:22:38.905Z,12.00
2019-02-27T02:25:29.173Z,11.73
2019-02-27T02:28:03.354Z,10.53
2019-02-27T02:31:09.866Z,13.03
2019-02-27T02:34:06.418Z,11.47
2019-02-27T02:37:29.212Z,12.93
2019-02-27T02:40:31.238Z,13.47
2019-02-27T02:43:29.973Z,13.23
2019-02-27T02:49:14.292Z,12.53
2019-02-27T02:52:10.996Z,12.47
2019-02-27T02:55:23.956Z,13.57
2019-02-27T02:57:57.984Z,12.83
2019-02-27T03:00:43.443Z,11.97
2019-02-27T03:03:26.035Z,13.53
2019-02-27T03:06:34.559Z,13.43
2019-02-27T03:09:21.466Z,13.63
2019-02-27T03:12:22.448Z,12.10
2019-02-27T03:15:02.460Z,13.30
2019-02-27T03:17:54.762Z,11.20
2019-02-27T03:20:41.146Z,11.30
2019-02-27T03:24:04.954Z,11.93
2019-02-27T03:26:56.329Z,12.80
2019-02-27T03:29:51.994Z,10.77
2019-02-27T03:32:55.166Z,12.03
2019-02-27T03:35:48.486Z,11.93
2019-02-27T03:39:09.523Z,12.47
2019-02-27T03:42:35.209Z,14.23
2019-02-27T03:45:22.932Z,14.10
2019-02-27T03:48:09.003Z,12.60
2019-02-27T03:50:43.052Z,13.87
2019-02-27T03:53:25.715Z,14.07
2019-02-27T03:56:43.574Z,13.40
2019-02-27T03:59:16.721Z,12.90
2019-02-27T04:02:10.900Z,14.00
2019-02-27T04:05:17.660Z,12.33
2019-02-27T04:07:57.331Z,12.67
2019-02-27T04:10:30.769Z,12.83
2019-02-27T04:12:57.987Z,12.23
2019-02-27T04:15:27.511Z,12.43
2019-02-27T04:17:55.381Z,13.67
2019-02-27T04:20:24.995Z,14.10
2019-02-27T04:22:54.515Z,13.23
2019-02-27T04:25:24.037Z,13.90
2019-02-27T04:27:55.590Z,13.00
2019-02-27T04:30:27.138Z,13.63
2019-02-27T04:32:56.781Z,12.67
2019-02-27T04:35:26.242Z,11.23
2019-02-27T04:37:55.712Z,10.43
2019-02-27T04:40:25.281Z,13.00
2019-02-27T04:42:57.034Z,12.97
2019-02-27T04:45:25.946Z,13.37
2019-02-27T04:47:55.458Z,14.83
2019-02-27T04:50:24.759Z,12.57
2019-02-27T04:52:57.642Z,12.60
2019-02-27T04:55:25.429Z,13.17
2019-02-27T04:57:54.991Z,11.23
2019-02-27T05:00:26.233Z,12.60
2019-02-27T05:02:55.583Z,13.23
2019-02-27T05:05:25.042Z,12.67
2019-02-27T05:07:54.957Z,13.63
2019-02-27T05:10:24.606Z,15.77
2019-02-27T05:12:54.048Z,12.83
2019-02-27T05:15:23.573Z,11.10
2019-02-27T05:17:55.608Z,11.83
2019-02-27T05:20:24.228Z,11.13
2019-02-27T05:22:53.683Z,10.77
2019-02-27T05:25:23.148Z,12.40
2019-02-27T05:27:52.616Z,12.73
2019-02-27T05:30:22.077Z,12.67
2019-02-27T05:32:51.547Z,10.73
2019-02-27T05:35:23.546Z,13.37
2019-02-27T05:37:52.190Z,12.50
2019-02-27T05:40:23.094Z,11.97
2019-02-27T05:42:52.872Z,12.60
2019-02-27T05:45:22.339Z,13.37
2019-02-27T05:47:51.851Z,11.53
2019-02-27T05:50:21.339Z,11.97
2019-02-27T05:52:50.846Z,11.73
2019-02-27T05:55:20.327Z,11.93
2019-02-27T05:57:49.776Z,11.77
2019-02-27T06:00:21.011Z,11.93
2019-02-27T06:02:50.492Z,13.17
2019-02-27T06:05:20.024Z,12.87
2019-02-27T06:07:49.570Z,12.30
2019-02-27T06:10:20.180Z,13.17
2019-02-27T06:12:50.426Z,11.57
2019-02-27T06:15:20.207Z,12.57
2019-02-27T06:17:49.920Z,10.93
2019-02-27T06:20:19.489Z,11.70
2019-02-27T06:22:48.921Z,11.30
2019-02-27T06:25:23.413Z,13.97
2019-02-27T06:27:52.142Z,11.93
2019-02-27T06:30:22.228Z,12.43
2019-02-27T06:32:51.773Z,12.20
2019-02-27T06:35:21.234Z,11.70
2019-02-27T06:37:51.435Z,11.80
2019-02-27T06:40:21.123Z,12.43
2019-02-27T06:42:53.389Z,12.00
2019-02-27T06:45:21.865Z,13.80
2019-02-27T06:47:51.344Z,11.97
2019-02-27T06:50:25.276Z,10.43
2019-02-27T06:52:52.019Z,11.43
2019-02-27T06:55:21.484Z,11.73
2019-02-27T06:57:51.039Z,11.27
2019-02-27T07:00:25.295Z,12.10
2019-02-27T07:02:55.512Z,11.00
2019-02-27T07:05:25.684Z,13.57
2019-02-27T07:07:55.169Z,11.53
2019-02-27T07:10:24.630Z,11.23
2019-02-27T07:12:55.303Z,10.63
2019-02-27T07:15:25.033Z,13.03
2019-02-27T07:17:54.496Z,12.67
2019-02-27T07:20:25.212Z,11.90
2019-02-27T07:22:54.768Z,11.07
2019-02-27T07:25:24.276Z,13.40
2019-02-27T07:27:53.809Z,12.20
2019-02-27T07:30:23.950Z,11.77
2019-02-27T07:32:53.708Z,11.50
2019-02-27T07:35:25.778Z,11.70
2019-02-27T07:37:54.471Z,11.83
2019-02-27T07:40:23.790Z,12.43
2019-02-27T07:42:53.424Z,12.43
2019-02-27T07:45:24.122Z,12.27
2019-02-27T07:47:53.662Z,12.63
2019-02-27T07:50:23.399Z,12.17
2019-02-27T07:52:52.915Z,12.37
2019-02-27T07:55:23.630Z,11.03
2019-02-27T07:57:58.346Z,11.43
2019-02-27T08:00:26.382Z,10.23
2019-02-27T08:02:56.267Z,9.77
2019-02-27T08:05:28.498Z,9.73
2019-02-27T08:07:57.075Z,10.00
2019-02-27T08:10:27.175Z,10.07
2019-02-27T08:12:56.847Z,10.10
2019-02-27T08:15:26.392Z,9.37
2019-02-27T08:17:57.903Z,10.20
2019-02-27T08:20:27.136Z,10.13
2019-02-27T08:22:57.751Z,9.90
2019-02-27T08:25:27.323Z,10.60
2019-02-27T08:27:56.825Z,10.33
2019-02-27T08:30:28.896Z,10.27
2019-02-27T08:32:58.438Z,10.17
2019-02-27T08:35:27.929Z,10.47
2019-02-27T08:38:02.498Z,10.23
2019-02-27T08:40:28.731Z,10.90
2019-02-27T08:42:58.210Z,10.57
2019-02-27T08:45:27.828Z,11.67
2019-02-27T08:47:57.347Z,12.00
2019-02-27T08:50:29.168Z,10.53
2019-02-27T08:52:58.066Z,9.97
2019-02-27T08:55:27.661Z,10.13
2019-02-27T08:57:57.262Z,9.43
2019-02-27T09:00:36.243Z,9.47
2019-02-27T09:03:05.736Z,8.70
2019-02-27T09:05:35.215Z,9.60
2019-02-27T09:08:07.316Z,9.10
2019-02-27T09:10:36.094Z,9.17
2019-02-27T09:13:06.188Z,8.60
2019-02-27T09:15:35.778Z,8.47
2019-02-27T09:18:05.321Z,8.17
2019-02-27T09:20:34.878Z,8.03
2019-02-27T09:23:04.358Z,8.27
2019-02-27T09:25:33.900Z,8.17
2019-02-27T09:28:03.610Z,7.87
2019-02-27T09:30:33.143Z,8.17
2019-02-27T09:33:02.597Z,7.93
2019-02-27T09:35:36.484Z,7.87
2019-02-27T09:38:03.303Z,8.20
2019-02-27T09:40:32.832Z,7.90
2019-02-27T09:43:02.406Z,8.17
2019-02-27T09:45:36.138Z,8.50
2019-02-27T09:48:06.212Z,8.07
2019-02-27T09:50:48.408Z,8.50
2019-02-27T09:53:18.143Z,8.67
2019-02-27T09:55:47.664Z,7.90
2019-02-27T09:58:17.106Z,8.43
2019-02-27T10:00:53.777Z,8.67
2019-02-27T10:03:23.405Z,8.10
2019-02-27T10:05:52.943Z,8.37
2019-02-27T10:08:25.246Z,7.83
2019-02-27T10:10:53.791Z,8.17
2019-02-27T10:13:23.249Z,8.50
2019-02-27T10:15:52.779Z,8.37
2019-02-27T10:18:22.307Z,7.30
2019-02-27T10:20:51.915Z,8.20
2019-02-27T10:23:21.410Z,8.93
2019-02-27T10:25:50.954Z,8.43
2019-02-27T10:28:20.500Z,7.90
2019-02-27T10:30:50.879Z,8.63
2019-02-27T10:33:20.522Z,7.93
2019-02-27T10:35:50.174Z,8.27
2019-02-27T10:38:19.677Z,8.50
2019-02-27T10:40:49.223Z,8.50
2019-02-27T10:43:20.985Z,8.27
2019-02-27T10:45:50.065Z,7.20
2019-02-27T10:48:19.615Z,8.57
2019-02-27T10:50:49.104Z,7.97
2019-02-27T10:53:18.665Z,7.43
2019-02-27T10:55:49.320Z,7.80
2019-02-27T10:58:19.454Z,7.30
2019-02-27T11:00:50.459Z,8.30
2019-02-27T11:03:19.963Z,8.70
2019-02-27T11:05:52.434Z,7.60
2019-02-27T11:08:20.635Z,8.00
2019-02-27T11:10:50.348Z,8.03
2019-02-27T11:13:19.928Z,7.60
2019-02-27T11:15:49.457Z,7.53
2019-02-27T11:18:18.975Z,6.93
2019-02-27T11:20:48.544Z,7.30
2019-02-27T11:23:17.984Z,7.00
2019-02-27T11:25:47.554Z,7.70
2019-02-27T11:28:17.032Z,7.60
2019-02-27T11:30:46.741Z,7.27
2019-02-27T11:33:25.234Z,6.97
2019-02-27T11:35:47.549Z,7.90
2019-02-27T11:38:17.009Z,7.50
2019-02-27T11:40:46.516Z,7.63
2019-02-27T11:43:17.241Z,7.37
2019-02-27T11:45:46.797Z,6.73
2019-02-27T11:48:16.378Z,7.33
2019-02-27T11:50:45.988Z,7.43
2019-02-27T11:53:15.479Z,7.20
2019-02-27T11:55:47.131Z,7.17
2019-02-27T11:58:16.489Z,8.17
2019-02-27T12:00:46.050Z,6.83
2019-02-27T12:03:15.659Z,6.17
2019-02-27T12:05:45.109Z,6.60
2019-02-27T12:08:14.675Z,6.10
2019-02-27T12:10:44.302Z,6.03
2019-02-27T12:13:13.762Z,6.10
2019-02-27T12:15:44.254Z,5.70
2019-02-27T12:18:13.971Z,6.47
2019-02-27T12:20:43.518Z,6.70
2019-02-27T12:23:13.024Z,6.20
2019-02-27T12:25:42.618Z,6.90
2019-02-27T12:28:15.186Z,6.30
2019-02-27T12:30:44.008Z,5.97
2019-02-27T12:33:13.344Z,5.97
2019-02-27T12:35:44.952Z,6.77
2019-02-27T12:38:14.159Z,6.27
2019-02-27T12:40:43.635Z,7.00
2019-02-27T12:43:17.427Z,7.33
2019-02-27T12:45:44.268Z,7.60
2019-02-27T12:48:13.804Z,6.87
2019-02-27T12:50:43.334Z,6.90
2019-02-27T12:53:12.909Z,6.97
2019-02-27T12:55:42.452Z,6.90
2019-02-27T12:58:13.486Z,6.60
2019-02-27T13:00:43.189Z,7.07
2019-02-27T13:03:12.863Z,7.60
2019-02-27T13:05:42.410Z,6.57
2019-02-27T13:08:12.088Z,7.53
2019-02-27T13:10:41.724Z,7.43
2019-02-27T13:13:11.265Z,7.53
2019-02-27T13:15:41.699Z,6.93
2019-02-27T13:18:11.303Z,7.23
2019-02-27T13:20:42.978Z,6.83
2019-02-27T13:23:12.171Z,6.70
2019-02-27T13:25:41.784Z,7.00
2019-02-27T13:28:11.342Z,6.90
2019-02-27T13:30:41.700Z,7.07
2019-02-27T13:33:11.891Z,7.40
2019-02-27T13:35:41.587Z,7.70
2019-02-27T13:38:11.117Z,7.23
2019-02-27T13:40:40.742Z,7.13
2019-02-27T13:43:10.360Z,7.90
2019-02-27T13:45:39.901Z,7.97
2019-02-27T13:48:09.471Z,6.87
2019-02-27T13:50:39.090Z,6.97
2019-02-27T13:53:08.743Z,6.93
2019-02-27T13:55:38.294Z,7.77
2019-02-27T13:58:07.946Z,8.20
2019-02-27T14:00:38.874Z,7.40
2019-02-27T14:03:12.619Z,7.63
2019-02-27T14:05:41.231Z,7.83
2019-02-27T14:08:11.041Z,7.87
2019-02-27T14:10:40.713Z,7.60
2019-02-27T14:13:10.364Z,7.70
2019-02-27T14:15:39.979Z,7.37
2019-02-27T14:18:09.624Z,7.97
2019-02-27T14:20:39.206Z,7.90
2019-02-27T14:23:08.949Z,9.77
2019-02-27T14:25:38.434Z,7.93
2019-02-27T14:28:08.079Z,7.83
2019-02-27T14:30:47.841Z,8.23
2019-02-27T14:33:19.420Z,8.07
2019-02-27T14:35:48.639Z,7.77
2019-02-27T14:38:18.218Z,8.00
2019-02-27T14:40:47.742Z,8.30
2019-02-27T14:43:17.228Z,7.83
2019-02-27T14:45:46.741Z,8.00
2019-02-27T14:48:21.066Z,7.80
2019-02-27T14:50:47.475Z,8.47
2019-02-27T14:53:19.718Z,7.67
2019-02-27T14:55:48.381Z,7.87
2019-02-27T14:58:17.819Z,8.17
2019-02-27T15:00:47.500Z,7.50
2019-02-27T15:03:17.042Z,8.23
2019-02-27T15:05:46.486Z,8.03
2019-02-27T15:08:16.051Z,8.17
2019-02-27T15:10:45.519Z,7.43
2019-02-27T15:13:15.029Z,7.77
2019-02-27T15:15:44.516Z,7.83
2019-02-27T15:18:14.151Z,7.63
2019-02-27T15:20:43.605Z,8.00
2019-02-27T15:23:13.139Z,8.20
2019-02-27T15:25:43.443Z,8.87
2019-02-27T15:28:13.072Z,7.50
2019-02-27T15:30:46.313Z,8.23
2019-02-27T15:33:13.801Z,7.97
2019-02-27T15:35:43.403Z,7.57
2019-02-27T15:38:12.979Z,7.43
2019-02-27T15:40:42.592Z,7.40
2019-02-27T15:43:17.082Z,8.30
2019-02-27T15:45:48.022Z,14.33
2019-02-27T15:48:14.942Z,10.80
2019-02-27T15:50:44.656Z,9.53
2019-02-27T15:53:14.985Z,7.93
2019-02-27T15:55:45.426Z,8.13
2019-02-27T15:58:14.916Z,8.40
2019-02-27T16:00:44.368Z,8.20
2019-02-27T16:03:13.889Z,9.10
2019-02-27T16:05:43.344Z,8.83
2019-02-27T16:08:12.851Z,8.77
2019-02-27T16:10:43.674Z,8.80
2019-02-27T16:13:13.580Z,7.50
2019-02-27T16:15:44.697Z,8.83
2019-02-27T16:18:14.267Z,9.03
2019-02-27T16:20:43.992Z,8.77
2019-02-27T16:23:13.476Z,8.90
2019-02-27T16:25:43.019Z,8.53
2019-02-27T16:28:16.412Z,8.77
2019-02-27T16:30:43.976Z,9.37
2019-02-27T16:33:13.603Z,8.77
2019-02-27T16:35:43.320Z,8.97
2019-02-27T16:38:13.258Z,9.07
2019-02-27T16:40:42.727Z,8.87
2019-02-27T16:43:13.570Z,9.13
2019-02-27T16:45:43.578Z,9.17
2019-02-27T16:48:13.089Z,9.03
2019-02-27T16:50:42.785Z,9.13
2019-02-27T16:53:16.100Z,9.53
2019-02-27T16:55:43.568Z,9.73
2019-02-27T16:58:13.266Z,9.23
2019-02-27T17:00:44.560Z,9.80
2019-02-27T17:03:14.153Z,9.53
2019-02-27T17:05:43.996Z,9.83
2019-02-27T17:08:13.546Z,9.37
2019-02-27T17:10:43.039Z,9.80
2019-02-27T17:13:15.428Z,10.10
2019-02-27T17:15:43.837Z,9.20
2019-02-27T17:18:13.302Z,9.13
2019-02-27T17:20:45.906Z,9.33
2019-02-27T17:23:15.524Z,8.57
2019-02-27T17:25:45.494Z,10.07
2019-02-27T17:28:14.990Z,9.77
2019-02-27T17:30:44.463Z,9.13
2019-02-27T17:33:15.782Z,9.67
2019-02-27T17:35:45.112Z,9.93
2019-02-27T17:38:14.730Z,9.13
2019-02-27T17:40:45.840Z,8.37
2019-02-27T17:43:15.340Z,8.87
2019-02-27T17:45:46.982Z,8.90
2019-02-27T17:48:16.281Z,9.47
2019-02-27T17:50:46.122Z,9.27
2019-02-27T17:53:15.911Z,10.17
2019-02-27T17:55:45.369Z,10.60
2019-02-27T17:58:14.849Z,10.17
2019-02-27T18:00:49.970Z,9.70
2019-02-27T18:03:17.028Z,9.70
2019-02-27T18:05:46.506Z,10.13
2019-02-27T18:08:17.103Z,10.63
2019-02-27T18:10:46.819Z,10.23
2019-02-27T18:13:16.445Z,10.63
2019-02-27T18:15:45.940Z,10.03
2019-02-27T18:18:15.472Z,9.63
2019-02-27T18:20:45.129Z,11.27
2019-02-27T18:23:14.603Z,11.00
2019-02-27T18:25:44.244Z,11.73
2019-02-27T18:28:13.735Z,11.20
2019-02-27T18:30:43.372Z,12.37
2019-02-27T18:33:14.298Z,11.97
2019-02-27T18:35:44.123Z,12.40
2019-02-27T18:38:13.600Z,11.67
2019-02-27T18:40:43.679Z,15.20
2019-02-27T18:43:13.299Z,13.13
2019-02-27T18:45:42.848Z,12.13
2019-02-27T18:48:12.387Z,10.53
2019-02-27T18:50:42.040Z,10.17
2019-02-27T18:53:13.326Z,10.77
2019-02-27T18:55:44.085Z,9.30
2019-02-27T18:58:13.712Z,10.03
2019-02-27T19:00:43.409Z,10.80
2019-02-27T19:03:13.514Z,9.47
2019-02-27T19:05:43.001Z,10.40
2019-02-27T19:08:12.600Z,11.77
2019-02-27T19:10:42.701Z,11.20
2019-02-27T19:13:12.404Z,10.27
2019-02-27T19:15:45.401Z,11.03
2019-02-27T19:18:13.456Z,12.67
2019-02-27T19:20:46.063Z,13.50
2019-02-27T19:23:17.859Z,12.13
2019-02-27T19:25:47.377Z,12.90
2019-02-27T19:28:16.924Z,16.43
2019-02-27T19:30:46.603Z,14.27
2019-02-27T19:33:16.306Z,15.07
2019-02-27T19:35:45.965Z,15.47
2019-02-27T19:38:15.579Z,15.47
2019-02-27T19:40:45.030Z,16.50
2019-02-27T19:43:14.657Z,16.03
2019-02-27T19:45:44.299Z,14.30
2019-02-27T19:48:13.846Z,14.73
2019-02-27T19:50:46.277Z,15.07
2019-02-27T19:53:14.619Z,15.23
2019-02-27T19:55:44.171Z,14.70
2019-02-27T19:58:17.270Z,14.77
2019-02-27T20:00:48.305Z,14.50
2019-02-27T20:03:16.430Z,13.67
2019-02-27T20:05:46.092Z,14.40
2019-02-27T20:08:15.705Z,14.77
2019-02-27T20:10:45.395Z,13.50
2019-02-27T20:13:15.012Z,14.87
2019-02-27T20:15:45.815Z,14.60
2019-02-27T20:18:16.161Z,13.53
2019-02-27T20:20:45.756Z,14.33
2019-02-27T20:23:15.432Z,12.73
2019-02-27T20:25:45.005Z,13.70
2019-02-27T20:28:14.504Z,12.70
2019-02-27T20:30:44.236Z,13.60
2019-02-27T20:33:13.830Z,12.23
2019-02-27T20:35:43.385Z,12.93
2019-02-27T20:38:16.156Z,11.87
2019-02-27T20:40:44.325Z,10.83
2019-02-27T20:43:13.781Z,12.70
2019-02-27T20:45:43.639Z,11.77
2019-02-27T20:48:13.571Z,11.43
2019-02-27T20:50:47.082Z,12.13
2019-02-27T20:53:16.632Z,12.53
2019-02-27T20:55:46.134Z,12.10
2019-02-27T20:58:16.838Z,10.37
2019-02-27T21:00:47.038Z,13.07
2019-02-27T21:03:16.524Z,13.10
2019-02-27T21:05:46.014Z,14.53
2019-02-27T21:08:15.582Z,13.40
2019-02-27T21:10:45.124Z,13.27
2019-02-27T21:13:16.004Z,13.13
2019-02-27T21:15:45.888Z,15.27
2019-02-27T21:18:15.436Z,15.53
2019-02-27T21:20:46.083Z,14.27
2019-02-27T21:23:15.931Z,15.27
2019-02-27T21:25:48.755Z,15.47
2019-02-27T21:28:20.901Z,15.03
2019-02-27T21:30:51.806Z,14.53
2019-02-27T21:33:19.482Z,15.27
2019-02-27T21:35:49.036Z,15.43
2019-02-27T21:38:18.668Z,15.87
2019-02-27T21:40:48.312Z,14.40
2019-02-27T21:43:17.967Z,13.00
2019-02-27T21:45:47.677Z,14.80
2019-02-27T21:48:17.245Z,13.90
2019-02-27T21:50:46.822Z,12.83
2019-02-27T21:53:16.639Z,13.43
2019-02-27T21:55:46.246Z,14.90
2019-02-27T21:58:20.353Z,14.57
2019-02-27T22:00:48.189Z,13.17
2019-02-27T22:03:18.529Z,13.27
2019-02-27T22:05:52.559Z,13.90
2019-02-27T22:08:20.294Z,12.50
2019-02-27T22:10:53.119Z,14.97
2019-02-27T22:13:28.968Z,13.90
2019-02-27T22:15:55.819Z,14.33
2019-02-27T22:18:23.466Z,12.70
2019-02-27T22:20:52.990Z,13.03
2019-02-27T22:23:22.486Z,12.87
2019-02-27T22:25:52.023Z,12.70
2019-02-27T22:28:21.462Z,10.97
2019-02-27T22:30:51.045Z,13.20
2019-02-27T22:33:22.969Z,12.23
2019-02-27T22:35:51.770Z,14.33
2019-02-27T22:38:25.851Z,15.27
2019-02-27T22:40:52.422Z,15.70
2019-02-27T22:43:22.819Z,15.90
2019-02-27T22:45:52.502Z,15.10
2019-02-27T22:48:21.965Z,15.33
2019-02-27T22:50:51.437Z,15.63
2019-02-27T22:53:21.044Z,15.13
2019-02-27T22:55:50.508Z,14.00
2019-02-27T22:58:20.025Z,14.30
2019-02-27T23:01:01.156Z,14.83
2019-02-27T23:03:36.020Z,13.90
2019-02-27T23:06:09.315Z,13.90
2019-02-27T23:08:37.837Z,15.23
2019-02-27T23:11:07.903Z,15.13
2019-02-27T23:13:37.701Z,15.40
2019-02-27T23:16:07.307Z,14.10
2019-02-27T23:18:37.369Z,14.67
2019-02-27T23:21:08.173Z,15.27
2019-02-27T23:23:37.719Z,14.30
2019-02-27T23:26:07.265Z,15.10
2019-02-27T23:28:36.731Z,15.20
2019-02-27T23:31:06.178Z,16.30
2019-02-27T23:33:36.705Z,17.40
2019-02-27T23:36:06.341Z,17.53
2019-02-27T23:38:36.067Z,17.77
2019-02-27T23:41:05.831Z,16.80
2019-02-27T23:43:35.575Z,17.17
2019-02-27T23:46:05.565Z,17.13
2019-02-27T23:48:36.216Z,16.63
2019-02-27T23:51:06.735Z,16.40
2019-02-27T23:53:36.379Z,16.97
2019-02-27T23:56:06.803Z,16.53
2019-02-27T23:58:36.485Z,14.20
